sensor_id;sensor_type;location;lat;lon;timestamp;P1;durP1;ratioP1;P2;durP2;ratioP2
40649;SDS011;26342;42.826;23.992;2022-11-20T00:01:15;8.05;;;2.30;;
40649;SDS011;26342;42.826;23.992;2022-11-20T00:03:48;4.05;;;1.92;;
40649;SDS011;26342;42.826;23.992;2022-11-20T00:06:15;5.90;;;3.75;;
40649;SDS011;26342;42.826;23.992;2022-11-20T00:08:43;4.78;;;4.15;;
40649;SDS011;26342;42.826;23.992;2022-11-20T00:11:10;8.82;;;3.17;;
40649;SDS011;26342;42.826;23.992;2022-11-20T00:13:37;8.18;;;3.45;;
40649;SDS011;26342;42.826;23.992;2022-11-20T00:16:04;4.28;;;3.10;;
40649;SDS011;26342;42.826;23.992;2022-11-20T00:18:32;3.92;;;2.58;;
40649;SDS011;26342;42.826;23.992;2022-11-20T00:21:09;4.05;;;3.70;;
40649;SDS011;26342;42.826;23.992;2022-11-20T00:23:36;8.25;;;3.95;;
40649;SDS011;26342;42.826;23.992;2022-11-20T00:26:06;6.28;;;5.18;;
40649;SDS011;26342;42.826;23.992;2022-11-20T00:28:32;6.70;;;3.78;;
40649;SDS011;26342;42.826;23.992;2022-11-20T00:31:05;7.43;;;4.75;;
40649;SDS011;26342;42.826;23.992;2022-11-20T00:33:32;5.28;;;4.57;;
40649;SDS011;26342;42.826;23.992;2022-11-20T00:36:02;7.88;;;6.55;;
40649;SDS011;26342;42.826;23.992;2022-11-20T00:38:29;7.28;;;4.00;;
40649;SDS011;26342;42.826;23.992;2022-11-20T00:40:56;4.75;;;2.97;;
40649;SDS011;26342;42.826;23.992;2022-11-20T00:43:29;4.80;;;3.67;;
40649;SDS011;26342;42.826;23.992;2022-11-20T00:46:01;5.22;;;3.88;;
40649;SDS011;26342;42.826;23.992;2022-11-20T00:48:27;5.63;;;3.90;;
40649;SDS011;26342;42.826;23.992;2022-11-20T00:50:53;7.28;;;4.40;;
40649;SDS011;26342;42.826;23.992;2022-11-20T00:53:19;17.13;;;5.72;;
40649;SDS011;26342;42.826;23.992;2022-11-20T00:55:55;9.63;;;7.00;;
40649;SDS011;26342;42.826;23.992;2022-11-20T00:58:22;11.32;;;5.85;;
40649;SDS011;26342;42.826;23.992;2022-11-20T01:00:48;12.98;;;5.45;;
40649;SDS011;26342;42.826;23.992;2022-11-20T01:03:14;5.55;;;3.55;;
40649;SDS011;26342;42.826;23.992;2022-11-20T01:05:41;8.70;;;5.47;;
40649;SDS011;26342;42.826;23.992;2022-11-20T01:08:06;3.03;;;2.65;;
40649;SDS011;26342;42.826;23.992;2022-11-20T01:10:32;7.53;;;4.10;;
40649;SDS011;26342;42.826;23.992;2022-11-20T01:12:57;5.47;;;1.98;;
40649;SDS011;26342;42.826;23.992;2022-11-20T01:15:41;7.45;;;3.63;;
40649;SDS011;26342;42.826;23.992;2022-11-20T01:18:07;4.43;;;3.60;;
40649;SDS011;26342;42.826;23.992;2022-11-20T01:20:35;4.97;;;3.35;;
40649;SDS011;26342;42.826;23.992;2022-11-20T01:23:02;6.53;;;4.10;;
40649;SDS011;26342;42.826;23.992;2022-11-20T01:25:28;9.93;;;3.83;;
40649;SDS011;26342;42.826;23.992;2022-11-20T01:27:54;7.13;;;5.35;;
40649;SDS011;26342;42.826;23.992;2022-11-20T01:30:20;10.18;;;5.22;;
40649;SDS011;26342;42.826;23.992;2022-11-20T01:32:45;7.90;;;5.65;;
40649;SDS011;26342;42.826;23.992;2022-11-20T01:35:11;5.78;;;3.15;;
40649;SDS011;26342;42.826;23.992;2022-11-20T01:37:36;12.88;;;3.85;;
40649;SDS011;26342;42.826;23.992;2022-11-20T01:40:01;7.50;;;2.75;;
40649;SDS011;26342;42.826;23.992;2022-11-20T01:42:27;6.75;;;2.60;;
40649;SDS011;26342;42.826;23.992;2022-11-20T01:48:11;9.63;;;4.28;;
40649;SDS011;26342;42.826;23.992;2022-11-20T01:50:37;3.63;;;2.92;;
40649;SDS011;26342;42.826;23.992;2022-11-20T01:53:07;4.65;;;3.10;;
40649;SDS011;26342;42.826;23.992;2022-11-20T01:55:36;4.13;;;3.10;;
40649;SDS011;26342;42.826;23.992;2022-11-20T01:58:06;5.55;;;3.35;;
40649;SDS011;26342;42.826;23.992;2022-11-20T02:00:32;2.70;;;2.25;;
40649;SDS011;26342;42.826;23.992;2022-11-20T02:03:05;1.30;;;1.20;;
40649;SDS011;26342;42.826;23.992;2022-11-20T02:05:38;1.25;;;1.10;;
40649;SDS011;26342;42.826;23.992;2022-11-20T02:08:10;0.25;;;0.25;;
40649;SDS011;26342;42.826;23.992;2022-11-20T02:10:36;0.43;;;0.43;;
40649;SDS011;26342;42.826;23.992;2022-11-20T02:13:02;0.25;;;0.25;;
40649;SDS011;26342;42.826;23.992;2022-11-20T02:15:46;0.10;;;0.10;;
40649;SDS011;26342;42.826;23.992;2022-11-20T02:18:13;0.20;;;0.20;;
40649;SDS011;26342;42.826;23.992;2022-11-20T02:20:44;0.47;;;0.47;;
40649;SDS011;26342;42.826;23.992;2022-11-20T02:23:16;0.80;;;0.43;;
40649;SDS011;26342;42.826;23.992;2022-11-20T02:25:49;0.82;;;0.40;;
40649;SDS011;26342;42.826;23.992;2022-11-20T02:28:16;1.70;;;0.38;;
40649;SDS011;26342;42.826;23.992;2022-11-20T02:30:43;0.10;;;0.10;;
40649;SDS011;26342;42.826;23.992;2022-11-20T02:33:08;0.65;;;0.03;;
40649;SDS011;26342;42.826;23.992;2022-11-20T02:38:00;0.00;;;0.00;;
40649;SDS011;26342;42.826;23.992;2022-11-20T02:40:27;0.32;;;0.32;;
40649;SDS011;26342;42.826;23.992;2022-11-20T02:42:56;0.65;;;0.25;;
40649;SDS011;26342;42.826;23.992;2022-11-20T02:45:22;0.25;;;0.25;;
40649;SDS011;26342;42.826;23.992;2022-11-20T02:47:49;0.20;;;0.20;;
40649;SDS011;26342;42.826;23.992;2022-11-20T02:50:15;0.35;;;0.32;;
40649;SDS011;26342;42.826;23.992;2022-11-20T02:52:40;0.38;;;0.20;;
40649;SDS011;26342;42.826;23.992;2022-11-20T02:55:06;0.50;;;0.50;;
40649;SDS011;26342;42.826;23.992;2022-11-20T02:57:32;2.28;;;0.60;;
40649;SDS011;26342;42.826;23.992;2022-11-20T02:59:57;0.70;;;0.35;;
40649;SDS011;26342;42.826;23.992;2022-11-20T03:02:23;0.10;;;0.10;;
40649;SDS011;26342;42.826;23.992;2022-11-20T03:04:48;0.25;;;0.25;;
40649;SDS011;26342;42.826;23.992;2022-11-20T03:07:13;0.10;;;0.10;;
40649;SDS011;26342;42.826;23.992;2022-11-20T03:09:39;2.05;;;0.57;;
40649;SDS011;26342;42.826;23.992;2022-11-20T03:12:04;0.40;;;0.30;;
40649;SDS011;26342;42.826;23.992;2022-11-20T03:14:30;0.70;;;0.55;;
40649;SDS011;26342;42.826;23.992;2022-11-20T03:16:56;0.68;;;0.45;;
40649;SDS011;26342;42.826;23.992;2022-11-20T03:19:22;0.20;;;0.20;;
40649;SDS011;26342;42.826;23.992;2022-11-20T03:21:47;0.60;;;0.60;;
40649;SDS011;26342;42.826;23.992;2022-11-20T03:24:13;2.28;;;0.65;;
40649;SDS011;26342;42.826;23.992;2022-11-20T03:26:39;0.22;;;0.22;;
40649;SDS011;26342;42.826;23.992;2022-11-20T03:29:05;0.95;;;0.80;;
40649;SDS011;26342;42.826;23.992;2022-11-20T03:31:32;0.25;;;0.25;;
40649;SDS011;26342;42.826;23.992;2022-11-20T03:33:59;1.40;;;0.65;;
40649;SDS011;26342;42.826;23.992;2022-11-20T03:36:26;0.80;;;0.60;;
40649;SDS011;26342;42.826;23.992;2022-11-20T03:38:53;0.63;;;0.55;;
40649;SDS011;26342;42.826;23.992;2022-11-20T03:41:21;0.40;;;0.40;;
40649;SDS011;26342;42.826;23.992;2022-11-20T03:43:52;0.15;;;0.15;;
40649;SDS011;26342;42.826;23.992;2022-11-20T03:46:18;1.27;;;0.90;;
40649;SDS011;26342;42.826;23.992;2022-11-20T03:48:44;0.90;;;0.32;;
40649;SDS011;26342;42.826;23.992;2022-11-20T03:51:14;0.00;;;0.00;;
40649;SDS011;26342;42.826;23.992;2022-11-20T03:53:50;0.55;;;0.40;;
40649;SDS011;26342;42.826;23.992;2022-11-20T03:56:20;0.20;;;0.20;;
40649;SDS011;26342;42.826;23.992;2022-11-20T03:58:48;0.00;;;0.00;;
40649;SDS011;26342;42.826;23.992;2022-11-20T04:01:14;0.17;;;0.17;;
40649;SDS011;26342;42.826;23.992;2022-11-20T04:03:44;5.28;;;3.00;;
40649;SDS011;26342;42.826;23.992;2022-11-20T04:08:38;5.07;;;1.33;;
40649;SDS011;26342;42.826;23.992;2022-11-20T04:13:46;0.60;;;0.60;;
40649;SDS011;26342;42.826;23.992;2022-11-20T04:16:12;0.90;;;0.77;;
40649;SDS011;26342;42.826;23.992;2022-11-20T04:18:38;3.58;;;1.52;;
40649;SDS011;26342;42.826;23.992;2022-11-20T04:21:04;0.38;;;0.30;;
40649;SDS011;26342;42.826;23.992;2022-11-20T04:23:30;0.98;;;0.77;;
40649;SDS011;26342;42.826;23.992;2022-11-20T04:26:09;0.30;;;0.30;;
40649;SDS011;26342;42.826;23.992;2022-11-20T04:28:36;0.47;;;0.40;;
40649;SDS011;26342;42.826;23.992;2022-11-20T04:31:23;1.80;;;0.77;;
40649;SDS011;26342;42.826;23.992;2022-11-20T04:33:49;0.70;;;0.50;;
40649;SDS011;26342;42.826;23.992;2022-11-20T04:36:15;0.20;;;0.20;;
40649;SDS011;26342;42.826;23.992;2022-11-20T04:38:54;1.70;;;1.05;;
40649;SDS011;26342;42.826;23.992;2022-11-20T04:41:21;0.55;;;0.55;;
40649;SDS011;26342;42.826;23.992;2022-11-20T04:43:48;0.55;;;0.45;;
40649;SDS011;26342;42.826;23.992;2022-11-20T04:46:15;1.17;;;0.90;;
40649;SDS011;26342;42.826;23.992;2022-11-20T04:48:41;0.40;;;0.40;;
40649;SDS011;26342;42.826;23.992;2022-11-20T04:51:07;0.47;;;0.40;;
40649;SDS011;26342;42.826;23.992;2022-11-20T04:53:32;0.32;;;0.32;;
40649;SDS011;26342;42.826;23.992;2022-11-20T04:56:01;0.68;;;0.68;;
40649;SDS011;26342;42.826;23.992;2022-11-20T04:58:28;0.60;;;0.60;;
40649;SDS011;26342;42.826;23.992;2022-11-20T05:00:53;0.73;;;0.68;;
40649;SDS011;26342;42.826;23.992;2022-11-20T05:03:25;1.85;;;1.17;;
40649;SDS011;26342;42.826;23.992;2022-11-20T05:05:50;0.95;;;0.95;;
40649;SDS011;26342;42.826;23.992;2022-11-20T05:08:15;0.98;;;0.47;;
40649;SDS011;26342;42.826;23.992;2022-11-20T05:10:41;1.83;;;0.88;;
40649;SDS011;26342;42.826;23.992;2022-11-20T05:13:06;1.92;;;0.95;;
40649;SDS011;26342;42.826;23.992;2022-11-20T05:15:32;0.95;;;0.90;;
40649;SDS011;26342;42.826;23.992;2022-11-20T05:17:57;2.38;;;1.63;;
40649;SDS011;26342;42.826;23.992;2022-11-20T05:20:22;1.90;;;1.00;;
40649;SDS011;26342;42.826;23.992;2022-11-20T05:22:48;0.82;;;0.70;;
40649;SDS011;26342;42.826;23.992;2022-11-20T05:25:13;0.77;;;0.65;;
40649;SDS011;26342;42.826;23.992;2022-11-20T05:27:39;1.15;;;1.08;;
40649;SDS011;26342;42.826;23.992;2022-11-20T05:30:04;1.70;;;1.58;;
40649;SDS011;26342;42.826;23.992;2022-11-20T05:32:31;1.83;;;1.05;;
40649;SDS011;26342;42.826;23.992;2022-11-20T05:34:56;1.40;;;1.30;;
40649;SDS011;26342;42.826;23.992;2022-11-20T05:37:21;1.65;;;0.80;;
40649;SDS011;26342;42.826;23.992;2022-11-20T05:39:47;2.05;;;1.02;;
40649;SDS011;26342;42.826;23.992;2022-11-20T05:42:12;1.05;;;0.93;;
40649;SDS011;26342;42.826;23.992;2022-11-20T05:44:57;6.97;;;1.65;;
40649;SDS011;26342;42.826;23.992;2022-11-20T05:47:31;2.72;;;1.58;;
40649;SDS011;26342;42.826;23.992;2022-11-20T05:49:57;1.70;;;0.75;;
40649;SDS011;26342;42.826;23.992;2022-11-20T05:52:23;2.92;;;2.17;;
40649;SDS011;26342;42.826;23.992;2022-11-20T05:54:48;1.55;;;0.98;;
40649;SDS011;26342;42.826;23.992;2022-11-20T05:57:14;3.28;;;2.05;;
40649;SDS011;26342;42.826;23.992;2022-11-20T05:59:39;2.25;;;1.92;;
40649;SDS011;26342;42.826;23.992;2022-11-20T06:02:05;1.48;;;1.38;;
40649;SDS011;26342;42.826;23.992;2022-11-20T06:04:30;1.67;;;1.58;;
40649;SDS011;26342;42.826;23.992;2022-11-20T06:06:55;2.40;;;1.52;;
40649;SDS011;26342;42.826;23.992;2022-11-20T06:09:21;5.82;;;1.88;;
40649;SDS011;26342;42.826;23.992;2022-11-20T06:11:46;2.55;;;1.45;;
40649;SDS011;26342;42.826;23.992;2022-11-20T06:14:12;2.35;;;2.15;;
40649;SDS011;26342;42.826;23.992;2022-11-20T06:16:37;4.88;;;2.55;;
40649;SDS011;26342;42.826;23.992;2022-11-20T06:19:02;2.38;;;1.75;;
40649;SDS011;26342;42.826;23.992;2022-11-20T06:21:28;8.68;;;3.72;;
40649;SDS011;26342;42.826;23.992;2022-11-20T06:23:53;4.72;;;3.30;;
40649;SDS011;26342;42.826;23.992;2022-11-20T06:26:20;2.10;;;1.90;;
40649;SDS011;26342;42.826;23.992;2022-11-20T06:28:47;1.77;;;1.65;;
40649;SDS011;26342;42.826;23.992;2022-11-20T06:31:13;2.35;;;1.90;;
40649;SDS011;26342;42.826;23.992;2022-11-20T06:33:41;3.28;;;1.48;;
40649;SDS011;26342;42.826;23.992;2022-11-20T06:36:07;1.60;;;1.08;;
40649;SDS011;26342;42.826;23.992;2022-11-20T06:38:35;2.03;;;1.20;;
40649;SDS011;26342;42.826;23.992;2022-11-20T06:41:00;2.60;;;1.92;;
40649;SDS011;26342;42.826;23.992;2022-11-20T06:43:25;1.23;;;1.00;;
40649;SDS011;26342;42.826;23.992;2022-11-20T06:45:53;3.53;;;1.65;;
40649;SDS011;26342;42.826;23.992;2022-11-20T06:48:20;3.03;;;1.83;;
40649;SDS011;26342;42.826;23.992;2022-11-20T06:50:45;1.25;;;0.95;;
40649;SDS011;26342;42.826;23.992;2022-11-20T06:53:11;3.03;;;2.10;;
40649;SDS011;26342;42.826;23.992;2022-11-20T06:55:36;4.18;;;1.92;;
40649;SDS011;26342;42.826;23.992;2022-11-20T06:58:02;3.50;;;1.58;;
40649;SDS011;26342;42.826;23.992;2022-11-20T07:00:27;6.20;;;2.90;;
40649;SDS011;26342;42.826;23.992;2022-11-20T07:02:52;2.67;;;2.30;;
40649;SDS011;26342;42.826;23.992;2022-11-20T07:05:18;3.08;;;2.03;;
40649;SDS011;26342;42.826;23.992;2022-11-20T07:07:43;3.00;;;2.53;;
40649;SDS011;26342;42.826;23.992;2022-11-20T07:10:09;4.55;;;1.63;;
40649;SDS011;26342;42.826;23.992;2022-11-20T07:12:35;2.97;;;2.03;;
40649;SDS011;26342;42.826;23.992;2022-11-20T07:15:00;3.88;;;3.47;;
40649;SDS011;26342;42.826;23.992;2022-11-20T07:17:26;4.72;;;2.83;;
40649;SDS011;26342;42.826;23.992;2022-11-20T07:19:51;2.33;;;1.92;;
40649;SDS011;26342;42.826;23.992;2022-11-20T07:22:17;3.85;;;2.70;;
40649;SDS011;26342;42.826;23.992;2022-11-20T07:24:42;3.60;;;1.40;;
40649;SDS011;26342;42.826;23.992;2022-11-20T07:27:07;3.15;;;2.67;;
40649;SDS011;26342;42.826;23.992;2022-11-20T07:29:33;4.43;;;2.25;;
40649;SDS011;26342;42.826;23.992;2022-11-20T07:31:58;3.47;;;2.88;;
40649;SDS011;26342;42.826;23.992;2022-11-20T07:34:24;7.20;;;4.25;;
40649;SDS011;26342;42.826;23.992;2022-11-20T07:36:49;1.95;;;1.85;;
40649;SDS011;26342;42.826;23.992;2022-11-20T07:39:15;5.18;;;2.55;;
40649;SDS011;26342;42.826;23.992;2022-11-20T07:41:40;9.27;;;3.30;;
40649;SDS011;26342;42.826;23.992;2022-11-20T07:44:06;1.65;;;1.55;;
40649;SDS011;26342;42.826;23.992;2022-11-20T07:46:31;2.53;;;2.33;;
40649;SDS011;26342;42.826;23.992;2022-11-20T07:48:57;7.07;;;2.95;;
40649;SDS011;26342;42.826;23.992;2022-11-20T07:51:22;4.30;;;2.50;;
40649;SDS011;26342;42.826;23.992;2022-11-20T07:53:50;2.17;;;1.98;;
40649;SDS011;26342;42.826;23.992;2022-11-20T07:56:16;6.63;;;3.30;;
40649;SDS011;26342;42.826;23.992;2022-11-20T07:58:41;3.75;;;1.88;;
40649;SDS011;26342;42.826;23.992;2022-11-20T08:01:07;2.75;;;2.50;;
40649;SDS011;26342;42.826;23.992;2022-11-20T08:03:33;3.42;;;2.83;;
40649;SDS011;26342;42.826;23.992;2022-11-20T08:05:59;3.22;;;2.15;;
40649;SDS011;26342;42.826;23.992;2022-11-20T08:08:25;2.78;;;2.25;;
40649;SDS011;26342;42.826;23.992;2022-11-20T08:10:51;3.28;;;2.88;;
40649;SDS011;26342;42.826;23.992;2022-11-20T08:13:16;5.97;;;2.10;;
40649;SDS011;26342;42.826;23.992;2022-11-20T08:16:00;6.78;;;2.13;;
40649;SDS011;26342;42.826;23.992;2022-11-20T08:18:26;3.90;;;2.92;;
40649;SDS011;26342;42.826;23.992;2022-11-20T08:20:51;5.57;;;3.42;;
40649;SDS011;26342;42.826;23.992;2022-11-20T08:23:17;3.28;;;2.42;;
40649;SDS011;26342;42.826;23.992;2022-11-20T08:25:42;1.45;;;1.35;;
40649;SDS011;26342;42.826;23.992;2022-11-20T08:28:08;6.68;;;1.90;;
40649;SDS011;26342;42.826;23.992;2022-11-20T08:30:35;5.13;;;2.47;;
40649;SDS011;26342;42.826;23.992;2022-11-20T08:33:02;3.05;;;1.95;;
40649;SDS011;26342;42.826;23.992;2022-11-20T08:35:33;2.92;;;2.42;;
40649;SDS011;26342;42.826;23.992;2022-11-20T08:38:03;4.38;;;2.40;;
40649;SDS011;26342;42.826;23.992;2022-11-20T08:40:29;2.03;;;1.77;;
40649;SDS011;26342;42.826;23.992;2022-11-20T08:42:55;2.95;;;1.80;;
40649;SDS011;26342;42.826;23.992;2022-11-20T08:45:20;1.65;;;1.50;;
40649;SDS011;26342;42.826;23.992;2022-11-20T08:47:46;4.28;;;1.80;;
40649;SDS011;26342;42.826;23.992;2022-11-20T08:50:12;2.08;;;1.13;;
40649;SDS011;26342;42.826;23.992;2022-11-20T08:52:39;2.95;;;2.63;;
40649;SDS011;26342;42.826;23.992;2022-11-20T08:55:04;1.63;;;1.20;;
40649;SDS011;26342;42.826;23.992;2022-11-20T08:57:31;5.22;;;2.53;;
40649;SDS011;26342;42.826;23.992;2022-11-20T08:59:58;7.28;;;2.05;;
40649;SDS011;26342;42.826;23.992;2022-11-20T09:02:23;3.15;;;1.67;;
40649;SDS011;26342;42.826;23.992;2022-11-20T09:04:49;2.17;;;1.88;;
40649;SDS011;26342;42.826;23.992;2022-11-20T09:07:14;3.17;;;2.35;;
40649;SDS011;26342;42.826;23.992;2022-11-20T09:09:40;2.33;;;2.08;;
40649;SDS011;26342;42.826;23.992;2022-11-20T09:12:05;6.10;;;2.42;;
40649;SDS011;26342;42.826;23.992;2022-11-20T09:14:30;3.65;;;2.17;;
40649;SDS011;26342;42.826;23.992;2022-11-20T09:16:56;3.67;;;2.92;;
40649;SDS011;26342;42.826;23.992;2022-11-20T09:19:23;5.25;;;3.10;;
40649;SDS011;26342;42.826;23.992;2022-11-20T09:21:48;8.02;;;3.15;;
40649;SDS011;26342;42.826;23.992;2022-11-20T09:24:14;3.65;;;3.22;;
40649;SDS011;26342;42.826;23.992;2022-11-20T09:26:40;2.70;;;2.17;;
40649;SDS011;26342;42.826;23.992;2022-11-20T09:29:05;2.47;;;1.52;;
40649;SDS011;26342;42.826;23.992;2022-11-20T09:31:30;5.30;;;3.25;;
40649;SDS011;26342;42.826;23.992;2022-11-20T09:33:56;4.90;;;3.22;;
40649;SDS011;26342;42.826;23.992;2022-11-20T09:36:22;3.75;;;2.50;;
40649;SDS011;26342;42.826;23.992;2022-11-20T09:38:47;15.20;;;8.13;;
40649;SDS011;26342;42.826;23.992;2022-11-20T09:46:53;4.40;;;2.95;;
40649;SDS011;26342;42.826;23.992;2022-11-20T09:52:33;3.03;;;2.72;;
40649;SDS011;26342;42.826;23.992;2022-11-20T09:55:02;3.40;;;2.10;;
40649;SDS011;26342;42.826;23.992;2022-11-20T09:57:38;4.85;;;3.28;;
40649;SDS011;26342;42.826;23.992;2022-11-20T10:00:09;4.35;;;1.92;;
40649;SDS011;26342;42.826;23.992;2022-11-20T10:10:43;3.13;;;1.05;;
40649;SDS011;26342;42.826;23.992;2022-11-20T10:13:25;2.20;;;1.40;;
40649;SDS011;26342;42.826;23.992;2022-11-20T10:15:59;10.55;;;2.63;;
40649;SDS011;26342;42.826;23.992;2022-11-20T10:18:50;1.52;;;1.42;;
40649;SDS011;26342;42.826;23.992;2022-11-20T10:29:39;3.92;;;2.80;;
40649;SDS011;26342;42.826;23.992;2022-11-20T10:32:13;2.08;;;1.48;;
40649;SDS011;26342;42.826;23.992;2022-11-20T10:34:51;4.72;;;2.80;;
40649;SDS011;26342;42.826;23.992;2022-11-20T10:37:25;5.57;;;3.75;;
40649;SDS011;26342;42.826;23.992;2022-11-20T10:42:31;2.42;;;2.17;;
40649;SDS011;26342;42.826;23.992;2022-11-20T10:48:17;3.03;;;2.00;;
40649;SDS011;26342;42.826;23.992;2022-11-20T10:51:07;6.97;;;1.85;;
40649;SDS011;26342;42.826;23.992;2022-11-20T11:01:25;6.22;;;3.08;;
40649;SDS011;26342;42.826;23.992;2022-11-20T11:03:52;2.65;;;1.85;;
40649;SDS011;26342;42.826;23.992;2022-11-20T11:06:36;4.85;;;3.20;;
40649;SDS011;26342;42.826;23.992;2022-11-20T11:09:11;12.85;;;8.07;;
40649;SDS011;26342;42.826;23.992;2022-11-20T11:11:41;5.38;;;4.63;;
40649;SDS011;26342;42.826;23.992;2022-11-20T11:14:11;9.13;;;4.32;;
40649;SDS011;26342;42.826;23.992;2022-11-20T11:16:57;6.45;;;3.70;;
40649;SDS011;26342;42.826;23.992;2022-11-20T11:19:23;5.63;;;4.28;;
40649;SDS011;26342;42.826;23.992;2022-11-20T11:21:50;8.20;;;4.18;;
40649;SDS011;26342;42.826;23.992;2022-11-20T11:24:19;6.95;;;5.47;;
40649;SDS011;26342;42.826;23.992;2022-11-20T11:26:51;11.80;;;6.85;;
40649;SDS011;26342;42.826;23.992;2022-11-20T11:29:20;9.27;;;4.43;;
40649;SDS011;26342;42.826;23.992;2022-11-20T11:31:45;9.60;;;6.25;;
40649;SDS011;26342;42.826;23.992;2022-11-20T11:34:14;8.43;;;5.03;;
40649;SDS011;26342;42.826;23.992;2022-11-20T11:36:41;8.48;;;3.17;;
40649;SDS011;26342;42.826;23.992;2022-11-20T11:39:14;12.38;;;7.22;;
40649;SDS011;26342;42.826;23.992;2022-11-20T11:41:42;7.07;;;4.80;;
40649;SDS011;26342;42.826;23.992;2022-11-20T11:44:21;5.13;;;3.53;;
40649;SDS011;26342;42.826;23.992;2022-11-20T11:47:23;4.97;;;2.90;;
40649;SDS011;26342;42.826;23.992;2022-11-20T11:50:01;2.28;;;1.70;;
40649;SDS011;26342;42.826;23.992;2022-11-20T11:52:27;5.38;;;1.90;;
40649;SDS011;26342;42.826;23.992;2022-11-20T11:54:55;3.78;;;3.17;;
40649;SDS011;26342;42.826;23.992;2022-11-20T12:00:51;1.92;;;1.60;;
40649;SDS011;26342;42.826;23.992;2022-11-20T12:03:27;2.03;;;1.45;;
40649;SDS011;26342;42.826;23.992;2022-11-20T12:06:01;20.20;;;2.47;;
40649;SDS011;26342;42.826;23.992;2022-11-20T12:11:13;4.15;;;2.45;;
40649;SDS011;26342;42.826;23.992;2022-11-20T12:16:17;8.38;;;4.63;;
40649;SDS011;26342;42.826;23.992;2022-11-20T12:18:49;4.97;;;3.10;;
40649;SDS011;26342;42.826;23.992;2022-11-20T12:34:47;10.10;;;4.40;;
40649;SDS011;26342;42.826;23.992;2022-11-20T12:43:27;10.98;;;5.72;;
40649;SDS011;26342;42.826;23.992;2022-11-20T13:00:18;6.90;;;4.93;;
40649;SDS011;26342;42.826;23.992;2022-11-20T13:06:43;24.73;;;8.20;;
40649;SDS011;26342;42.826;23.992;2022-11-20T13:08:53;6.50;;;4.90;;
40649;SDS011;26342;42.826;23.992;2022-11-20T13:19:09;21.80;;;9.73;;
40649;SDS011;26342;42.826;23.992;2022-11-20T13:21:42;12.60;;;7.22;;
40649;SDS011;26342;42.826;23.992;2022-11-20T13:29:33;10.13;;;5.18;;
40649;SDS011;26342;42.826;23.992;2022-11-20T13:34:30;13.95;;;6.75;;
40649;SDS011;26342;42.826;23.992;2022-11-20T13:36:56;17.80;;;7.20;;
40649;SDS011;26342;42.826;23.992;2022-11-20T13:41:55;23.27;;;13.70;;
40649;SDS011;26342;42.826;23.992;2022-11-20T13:44:38;10.18;;;5.88;;
40649;SDS011;26342;42.826;23.992;2022-11-20T13:50:02;10.48;;;8.35;;
40649;SDS011;26342;42.826;23.992;2022-11-20T13:57:43;11.35;;;7.25;;
40649;SDS011;26342;42.826;23.992;2022-11-20T14:00:17;8.88;;;4.88;;
40649;SDS011;26342;42.826;23.992;2022-11-20T14:02:52;7.70;;;6.25;;
40649;SDS011;26342;42.826;23.992;2022-11-20T14:05:26;7.72;;;6.13;;
40649;SDS011;26342;42.826;23.992;2022-11-20T14:07:53;18.63;;;8.20;;
40649;SDS011;26342;42.826;23.992;2022-11-20T14:10:26;19.02;;;9.35;;
40649;SDS011;26342;42.826;23.992;2022-11-20T14:12:53;14.30;;;6.90;;
40649;SDS011;26342;42.826;23.992;2022-11-20T14:15:31;6.32;;;5.10;;
40649;SDS011;26342;42.826;23.992;2022-11-20T14:17:59;4.78;;;4.25;;
40649;SDS011;26342;42.826;23.992;2022-11-20T14:20:36;3.08;;;2.17;;
40649;SDS011;26342;42.826;23.992;2022-11-20T14:23:03;4.07;;;3.22;;
40649;SDS011;26342;42.826;23.992;2022-11-20T14:25:30;4.30;;;2.92;;
40649;SDS011;26342;42.826;23.992;2022-11-20T14:28:00;7.65;;;3.28;;
40649;SDS011;26342;42.826;23.992;2022-11-20T14:30:28;2.88;;;2.47;;
40649;SDS011;26342;42.826;23.992;2022-11-20T14:33:02;4.38;;;3.17;;
40649;SDS011;26342;42.826;23.992;2022-11-20T14:35:30;6.32;;;3.08;;
40649;SDS011;26342;42.826;23.992;2022-11-20T14:37:59;8.80;;;5.43;;
40649;SDS011;26342;42.826;23.992;2022-11-20T14:40:31;6.70;;;4.82;;
40649;SDS011;26342;42.826;23.992;2022-11-20T14:43:00;4.15;;;3.22;;
40649;SDS011;26342;42.826;23.992;2022-11-20T14:45:27;14.85;;;8.63;;
40649;SDS011;26342;42.826;23.992;2022-11-20T14:47:56;18.98;;;12.55;;
40649;SDS011;26342;42.826;23.992;2022-11-20T14:50:25;25.95;;;10.05;;
40649;SDS011;26342;42.826;23.992;2022-11-20T14:52:56;11.30;;;7.55;;
40649;SDS011;26342;42.826;23.992;2022-11-20T14:58:06;23.33;;;15.18;;
40649;SDS011;26342;42.826;23.992;2022-11-20T15:00:59;19.95;;;12.60;;
40649;SDS011;26342;42.826;23.992;2022-11-20T15:03:35;13.27;;;6.88;;
40649;SDS011;26342;42.826;23.992;2022-11-20T15:06:03;6.15;;;4.97;;
40649;SDS011;26342;42.826;23.992;2022-11-20T15:08:29;13.05;;;6.72;;
40649;SDS011;26342;42.826;23.992;2022-11-20T15:10:55;12.85;;;7.75;;
40649;SDS011;26342;42.826;23.992;2022-11-20T15:16:04;9.32;;;6.55;;
40649;SDS011;26342;42.826;23.992;2022-11-20T15:18:39;12.60;;;5.30;;
40649;SDS011;26342;42.826;23.992;2022-11-20T15:21:18;7.78;;;5.15;;
40649;SDS011;26342;42.826;23.992;2022-11-20T15:23:45;5.13;;;3.83;;
40649;SDS011;26342;42.826;23.992;2022-11-20T15:26:11;5.57;;;3.40;;
40649;SDS011;26342;42.826;23.992;2022-11-20T15:28:39;10.73;;;4.63;;
40649;SDS011;26342;42.826;23.992;2022-11-20T15:31:09;12.35;;;9.77;;
40649;SDS011;26342;42.826;23.992;2022-11-20T15:33:37;16.65;;;10.60;;
40649;SDS011;26342;42.826;23.992;2022-11-20T15:36:02;19.10;;;10.45;;
40649;SDS011;26342;42.826;23.992;2022-11-20T15:38:29;8.43;;;5.32;;
40649;SDS011;26342;42.826;23.992;2022-11-20T15:40:54;6.60;;;3.97;;
40649;SDS011;26342;42.826;23.992;2022-11-20T15:43:19;9.55;;;5.85;;
40649;SDS011;26342;42.826;23.992;2022-11-20T15:45:46;9.63;;;5.72;;
40649;SDS011;26342;42.826;23.992;2022-11-20T15:50:57;11.15;;;6.43;;
40649;SDS011;26342;42.826;23.992;2022-11-20T15:53:35;9.75;;;5.00;;
40649;SDS011;26342;42.826;23.992;2022-11-20T15:56:01;7.63;;;5.20;;
40649;SDS011;26342;42.826;23.992;2022-11-20T15:58:27;5.22;;;4.68;;
40649;SDS011;26342;42.826;23.992;2022-11-20T16:00:53;8.77;;;5.55;;
40649;SDS011;26342;42.826;23.992;2022-11-20T16:03:18;11.93;;;6.30;;
40649;SDS011;26342;42.826;23.992;2022-11-20T16:05:44;17.20;;;6.45;;
40649;SDS011;26342;42.826;23.992;2022-11-20T16:08:10;7.18;;;5.65;;
40649;SDS011;26342;42.826;23.992;2022-11-20T16:10:36;17.35;;;6.82;;
40649;SDS011;26342;42.826;23.992;2022-11-20T16:13:01;9.35;;;5.70;;
40649;SDS011;26342;42.826;23.992;2022-11-20T16:15:50;12.55;;;6.28;;
40649;SDS011;26342;42.826;23.992;2022-11-20T16:18:20;13.52;;;6.13;;
40649;SDS011;26342;42.826;23.992;2022-11-20T16:20:53;12.63;;;5.82;;
40649;SDS011;26342;42.826;23.992;2022-11-20T16:23:20;22.88;;;10.88;;
40649;SDS011;26342;42.826;23.992;2022-11-20T16:25:46;15.40;;;8.82;;
40649;SDS011;26342;42.826;23.992;2022-11-20T16:28:12;17.67;;;9.32;;
40649;SDS011;26342;42.826;23.992;2022-11-20T16:30:37;15.43;;;10.65;;
40649;SDS011;26342;42.826;23.992;2022-11-20T16:33:03;27.98;;;11.18;;
40649;SDS011;26342;42.826;23.992;2022-11-20T16:35:29;12.63;;;8.07;;
40649;SDS011;26342;42.826;23.992;2022-11-20T16:37:56;15.32;;;8.65;;
40649;SDS011;26342;42.826;23.992;2022-11-20T16:40:23;16.90;;;10.77;;
40649;SDS011;26342;42.826;23.992;2022-11-20T16:42:49;20.92;;;10.68;;
40649;SDS011;26342;42.826;23.992;2022-11-20T16:45:14;22.52;;;12.10;;
40649;SDS011;26342;42.826;23.992;2022-11-20T16:47:40;15.50;;;9.52;;